Thomson Majesty — 9HA2188 — position and weather

sailwx.info

Track history (hours):
 
Tides and Currents Weather Stations Pressure Air Temp Water Temp Dewpoint Dewpoint Depression Visibility Wind Speed Wind Dir Waves Ship Positions

Thomson Majesty

Last reported at 2014-Oct-01 04:21 UTC. Time now 2014-Oct-01 05:57 UTC.
Position N 36°41' E 023°03'.

Length 207 m; draft 6.2 m.

Type: Ship. MMSI: 248124000.

Date/timePositionNaut miles runAvg speedWind from/ knotsBaromVisibWave heightAir tempDewpointWater temp
2014-Oct-01 04:21N 36°41' E 023°03'2 2.3
2014-Oct-01 03:24N 36°41' E 023°05'2015.0
2014-Oct-01 02:06N 36°42' E 023°30'712.6
2014-Oct-01 01:33N 36°48' E 023°32'1312.5
2014-Oct-01 00:33N 36°55' E 023°46'1313.0
2014-Sep-30 23:33N 36°59' E 024°01'1211.9
2014-Sep-30 22:32N 37°11' E 024°01'1313.1
2014-Sep-30 21:33N 37°22' E 023°53'1313.1
2014-Sep-30 20:33N 37°34' E 023°45'1313.1
2014-Sep-30 19:33N 37°46' E 023°39'1110.8
2014-Sep-30 18:34N 37°56' E 023°38'0 0.1
2014-Sep-30 17:33N 37°56' E 023°38'0 0.0
2014-Sep-30 16:33N 37°56' E 023°38'0 0.0
2014-Sep-30 15:33N 37°56' E 023°38'0 0.0
2014-Sep-30 14:33N 37°56' E 023°38'0 0.0
2014-Sep-30 13:33N 37°56' E 023°38'0 0.0
2014-Sep-30 12:33N 37°56' E 023°38'0 0.0
2014-Sep-30 11:33N 37°56' E 023°38'0 0.0
2014-Sep-30 10:33N 37°56' E 023°38'0 0.0
2014-Sep-30 09:33N 37°56' E 023°38'0 0.0
2014-Sep-30 08:33N 37°56' E 023°38'0 0.0
2014-Sep-30 07:33N 37°56' E 023°38'0 0.0
2014-Sep-30 06:33N 37°56' E 023°38'0 0.0
2014-Sep-30 05:33N 37°56' E 023°38'0 0.1
2014-Sep-30 03:22N 37°56' E 023°38'5 6.5
2014-Sep-30 02:33N 37°51' E 023°39'1616.3
2014-Sep-30 01:33N 37°38' E 023°51'1717.3
2014-Sep-30 00:33N 37°31' E 024°12'1716.9
2014-Sep-29 23:33N 37°31' E 024°33'1717.2
2014-Sep-29 22:33N 37°33' E 024°55'1717.0
2014-Sep-29 21:33N 37°31' E 025°16'1212.5
2014-Sep-29 20:33N 37°34' E 025°31'2512.4
2014-Sep-29 18:32N 37°41' E 026°02'18 1.0
2014-Sep-28 23:33N 37°31' E 026°21'1111.4
2014-Sep-28 22:33N 37°29' E 026°07'1212.1
2014-Sep-28 21:33N 37°26' E 025°52'1211.9
2014-Sep-28 20:33N 37°24' E 025°37'1211.8
2014-Sep-28 19:33N 37°22' E 025°23'1312.6
2014-Sep-28 18:33N 37°23' E 025°07'9 8.6
2014-Sep-28 17:33N 37°26' E 024°57'0 0.0
2014-Sep-28 16:33N 37°26' E 024°57'0 0.0
2014-Sep-28 15:33N 37°26' E 024°57'0 0.0
2014-Sep-28 14:33N 37°26' E 024°57'0 0.0
2014-Sep-28 13:33N 37°26' E 024°57'0 0.0
2014-Sep-28 12:33N 37°26' E 024°57'0 0.0
2014-Sep-28 11:33N 37°26' E 024°57'0 0.0
2014-Sep-28 10:33N 37°26' E 024°57'0 0.0
2014-Sep-28 09:33N 37°26' E 024°57'0 0.0
2014-Sep-28 08:33N 37°26' E 024°57'0 0.0
2014-Sep-28 07:33N 37°26' E 024°57'0 0.0
2014-Sep-28 06:33N 37°26' E 024°57'0 0.0
2014-Sep-28 05:33N 37°26' E 024°57'0 0.0
2014-Sep-28 04:33N 37°26' E 024°57'0 0.2
2014-Sep-28 03:31N 37°26' E 024°57'9 9.6
2014-Sep-28 02:33N 37°18' E 024°52'1515.3
2014-Sep-28 01:33N 37°08' E 024°38'1515.3
2014-Sep-28 00:34N 36°59' E 024°22'1515.4
2014-Sep-27 23:33N 36°50' E 024°06'1515.0
2014-Sep-27 22:33N 36°42' E 023°50'1515.2
2014-Sep-27 21:33N 36°34' E 023°34'  
Track history (hours):
 
Tides and Currents Weather Stations Pressure Air Temp Water Temp Dewpoint Dewpoint Depression Visibility Wind Speed Wind Dir Waves Ship Positions

Thomson Majesty

Last reported at 2014-Oct-01 04:21 UTC. Time now 2014-Oct-01 05:57 UTC.
Position N 36°41' E 023°03'.

Length 207 m; draft 6.2 m.

Type: Ship. MMSI: 248124000.

Date/timePositionNaut miles runAvg speedWind from/ knotsBaromVisibWave heightAir tempDewpointWater temp
2014-Oct-01 04:21N 36°41' E 023°03'2 2.3
2014-Oct-01 03:24N 36°41' E 023°05'2015.0
2014-Oct-01 02:06N 36°42' E 023°30'712.6
2014-Oct-01 01:33N 36°48' E 023°32'1312.5
2014-Oct-01 00:33N 36°55' E 023°46'1313.0
2014-Sep-30 23:33N 36°59' E 024°01'1211.9
2014-Sep-30 22:32N 37°11' E 024°01'1313.1
2014-Sep-30 21:33N 37°22' E 023°53'1313.1
2014-Sep-30 20:33N 37°34' E 023°45'1313.1
2014-Sep-30 19:33N 37°46' E 023°39'1110.8
2014-Sep-30 18:34N 37°56' E 023°38'0 0.1
2014-Sep-30 17:33N 37°56' E 023°38'0 0.0
2014-Sep-30 16:33N 37°56' E 023°38'0 0.0
2014-Sep-30 15:33N 37°56' E 023°38'0 0.0
2014-Sep-30 14:33N 37°56' E 023°38'0 0.0
2014-Sep-30 13:33N 37°56' E 023°38'0 0.0
2014-Sep-30 12:33N 37°56' E 023°38'0 0.0
2014-Sep-30 11:33N 37°56' E 023°38'0 0.0
2014-Sep-30 10:33N 37°56' E 023°38'0 0.0
2014-Sep-30 09:33N 37°56' E 023°38'0 0.0
2014-Sep-30 08:33N 37°56' E 023°38'0 0.0
2014-Sep-30 07:33N 37°56' E 023°38'0 0.0
2014-Sep-30 06:33N 37°56' E 023°38'0 0.0
2014-Sep-30 05:33N 37°56' E 023°38'0 0.1
2014-Sep-30 03:22N 37°56' E 023°38'5 6.5
2014-Sep-30 02:33N 37°51' E 023°39'1616.3
2014-Sep-30 01:33N 37°38' E 023°51'1717.3
2014-Sep-30 00:33N 37°31' E 024°12'1716.9
2014-Sep-29 23:33N 37°31' E 024°33'1717.2
2014-Sep-29 22:33N 37°33' E 024°55'1717.0
2014-Sep-29 21:33N 37°31' E 025°16'1212.5
2014-Sep-29 20:33N 37°34' E 025°31'2512.4
2014-Sep-29 18:32N 37°41' E 026°02'18 1.0
2014-Sep-28 23:33N 37°31' E 026°21'1111.4
2014-Sep-28 22:33N 37°29' E 026°07'1212.1
2014-Sep-28 21:33N 37°26' E 025°52'1211.9
2014-Sep-28 20:33N 37°24' E 025°37'1211.8
2014-Sep-28 19:33N 37°22' E 025°23'1312.6
2014-Sep-28 18:33N 37°23' E 025°07'9 8.6
2014-Sep-28 17:33N 37°26' E 024°57'0 0.0
2014-Sep-28 16:33N 37°26' E 024°57'0 0.0
2014-Sep-28 15:33N 37°26' E 024°57'0 0.0
2014-Sep-28 14:33N 37°26' E 024°57'0 0.0
2014-Sep-28 13:33N 37°26' E 024°57'0 0.0
2014-Sep-28 12:33N 37°26' E 024°57'0 0.0
2014-Sep-28 11:33N 37°26' E 024°57'0 0.0
2014-Sep-28 10:33N 37°26' E 024°57'0 0.0
2014-Sep-28 09:33N 37°26' E 024°57'0 0.0
2014-Sep-28 08:33N 37°26' E 024°57'0 0.0
2014-Sep-28 07:33N 37°26' E 024°57'0 0.0
2014-Sep-28 06:33N 37°26' E 024°57'0 0.0
2014-Sep-28 05:33N 37°26' E 024°57'0 0.0
2014-Sep-28 04:33N 37°26' E 024°57'0 0.2
2014-Sep-28 03:31N 37°26' E 024°57'9 9.6
2014-Sep-28 02:33N 37°18' E 024°52'1515.3
2014-Sep-28 01:33N 37°08' E 024°38'1515.3
2014-Sep-28 00:34N 36°59' E 024°22'1515.4
2014-Sep-27 23:33N 36°50' E 024°06'1515.0
2014-Sep-27 22:33N 36°42' E 023°50'1515.2
2014-Sep-27 21:33N 36°34' E 023°34'  

Dump ship's entire track history